createdAt,value
2022-08-26T00:01:14.283Z,18.50
2022-08-26T00:03:44.426Z,18.45
2022-08-26T00:06:14.547Z,18.80
2022-08-26T00:08:51.399Z,14.55
2022-08-26T00:11:26.727Z,13.10
2022-08-26T00:14:00.223Z,13.15
2022-08-26T00:16:31.440Z,17.03
2022-08-26T00:19:02.087Z,20.75
2022-08-26T00:21:32.340Z,21.13
2022-08-26T00:24:02.608Z,14.00
2022-08-26T00:26:33.974Z,13.75
2022-08-26T00:29:07.354Z,17.25
2022-08-26T00:31:37.631Z,13.13
2022-08-26T00:34:11.276Z,15.68
2022-08-26T00:36:42.420Z,16.65
2022-08-26T00:39:13.739Z,19.85
2022-08-26T00:41:45.019Z,12.90
2022-08-26T00:44:17.776Z,14.32
2022-08-26T00:46:49.651Z,15.05
2022-08-26T00:49:22.046Z,13.68
2022-08-26T00:51:54.473Z,16.02
2022-08-26T00:54:27.434Z,14.07
2022-08-26T00:56:59.998Z,12.10
2022-08-26T00:59:33.773Z,12.65
2022-08-26T01:02:04.119Z,15.40
2022-08-26T01:04:37.804Z,17.35
2022-08-26T01:07:08.537Z,12.38
2022-08-26T01:09:41.991Z,14.82
2022-08-26T01:12:12.864Z,13.65
2022-08-26T01:14:47.306Z,13.32
2022-08-26T01:17:19.343Z,12.75
2022-08-26T01:19:52.305Z,13.35
2022-08-26T01:22:28.097Z,11.23
2022-08-26T01:25:03.676Z,15.18
2022-08-26T01:27:35.464Z,16.55
2022-08-26T01:30:07.018Z,13.05
2022-08-26T01:32:38.869Z,15.73
2022-08-26T01:35:10.858Z,17.73
2022-08-26T01:37:42.625Z,14.68
2022-08-26T01:40:17.171Z,16.92
2022-08-26T01:42:49.223Z,16.23
2022-08-26T01:45:23.964Z,13.18
2022-08-26T01:47:56.996Z,17.50
2022-08-26T01:50:30.193Z,13.85
2022-08-26T01:53:03.699Z,15.68
2022-08-26T01:55:38.064Z,13.18
2022-08-26T01:58:11.574Z,16.40
2022-08-26T02:00:44.072Z,16.67
2022-08-26T02:03:22.315Z,17.60
2022-08-26T02:05:57.786Z,22.58
2022-08-26T02:08:32.924Z,19.15
2022-08-26T02:11:06.827Z,14.95
2022-08-26T02:13:40.904Z,22.63
2022-08-26T02:16:12.070Z,17.67
2022-08-26T02:18:45.151Z,15.82
2022-08-26T02:21:17.431Z,18.55
2022-08-26T02:23:47.973Z,21.33
2022-08-26T02:26:22.466Z,24.77
2022-08-26T02:28:54.757Z,21.75
2022-08-26T02:31:25.078Z,16.15
2022-08-26T02:33:55.140Z,17.02
2022-08-26T02:36:28.855Z,23.83
2022-08-26T02:38:59.013Z,19.42
2022-08-26T02:41:31.636Z,24.55
2022-08-26T02:44:02.961Z,21.50
2022-08-26T02:46:33.261Z,21.23
2022-08-26T02:49:04.062Z,21.17
2022-08-26T02:51:34.118Z,18.73
2022-08-26T02:54:04.063Z,20.42
2022-08-26T02:56:38.524Z,18.05
2022-08-26T02:59:09.493Z,19.92
2022-08-26T03:01:40.538Z,19.20
2022-08-26T03:04:12.331Z,13.38
2022-08-26T03:06:42.594Z,16.80
2022-08-26T03:09:18.967Z,15.43
2022-08-26T03:11:52.033Z,14.55
2022-08-26T03:14:23.936Z,13.63
2022-08-26T03:16:55.969Z,15.93
2022-08-26T03:19:26.979Z,17.25
2022-08-26T03:21:58.240Z,14.75
2022-08-26T03:24:29.176Z,14.77
2022-08-26T03:27:02.119Z,15.35
2022-08-26T03:29:50.503Z,16.55
2022-08-26T03:32:20.817Z,14.90
2022-08-26T03:34:51.139Z,14.20
2022-08-26T03:37:21.710Z,15.68
2022-08-26T03:39:52.195Z,13.45
2022-08-26T03:42:25.055Z,12.40
2022-08-26T03:44:55.058Z,16.20
2022-08-26T03:47:25.263Z,15.18
2022-08-26T03:49:55.473Z,14.73
2022-08-26T03:52:25.755Z,16.55
2022-08-26T03:54:56.015Z,20.13
2022-08-26T03:57:29.259Z,18.25
2022-08-26T04:00:01.351Z,16.52
2022-08-26T04:02:39.027Z,21.48
2022-08-26T04:05:09.854Z,25.63
2022-08-26T04:07:39.830Z,21.45
2022-08-26T04:10:11.498Z,18.05
2022-08-26T04:12:44.295Z,19.90
2022-08-26T04:15:17.921Z,20.00
2022-08-26T04:17:48.258Z,23.13
2022-08-26T04:20:19.654Z,25.60
2022-08-26T04:22:49.923Z,16.15
2022-08-26T04:25:20.631Z,21.25
2022-08-26T04:27:53.308Z,36.58
2022-08-26T04:30:23.867Z,22.25
2022-08-26T04:32:55.890Z,20.55
2022-08-26T04:35:26.328Z,19.83
2022-08-26T04:37:57.070Z,19.63
2022-08-26T04:40:27.785Z,16.27
2022-08-26T04:43:00.721Z,19.08
2022-08-26T04:45:30.697Z,20.52
2022-08-26T04:48:00.956Z,24.80
2022-08-26T04:50:34.737Z,16.02
2022-08-26T04:53:05.112Z,20.70
2022-08-26T04:55:38.384Z,21.83
2022-08-26T04:58:12.735Z,22.00
2022-08-26T05:00:43.291Z,20.77
2022-08-26T05:03:13.554Z,18.42
2022-08-26T05:05:44.509Z,23.17
2022-08-26T05:08:15.573Z,19.08
2022-08-26T05:10:48.372Z,20.30
2022-08-26T05:13:23.389Z,23.55
2022-08-26T05:15:54.382Z,25.08
2022-08-26T05:18:30.054Z,21.55
2022-08-26T05:21:00.149Z,22.55
2022-08-26T05:23:31.509Z,23.08
2022-08-26T05:26:02.547Z,20.52
2022-08-26T05:28:37.997Z,17.63
2022-08-26T05:31:15.126Z,23.88
2022-08-26T05:33:47.711Z,23.98
2022-08-26T05:36:19.889Z,18.52
2022-08-26T05:38:52.403Z,22.52
2022-08-26T05:41:24.966Z,19.23
2022-08-26T05:43:59.187Z,21.27
2022-08-26T05:46:30.028Z,20.02
2022-08-26T05:49:00.832Z,23.83
2022-08-26T05:51:31.144Z,22.95
2022-08-26T05:54:01.918Z,21.42
2022-08-26T05:56:33.802Z,20.83
2022-08-26T05:59:10.929Z,14.73
2022-08-26T06:01:44.895Z,21.38
2022-08-26T06:04:15.809Z,27.23
2022-08-26T06:06:45.759Z,20.30
2022-08-26T06:09:18.202Z,22.55
2022-08-26T06:11:48.363Z,19.73
2022-08-26T06:14:21.315Z,17.50
2022-08-26T06:16:51.541Z,22.50
2022-08-26T06:19:22.570Z,26.67
2022-08-26T06:21:55.061Z,21.02
2022-08-26T06:24:37.886Z,18.27
2022-08-26T06:27:13.474Z,17.10
2022-08-26T06:29:46.032Z,23.98
2022-08-26T06:32:17.467Z,21.23
2022-08-26T06:34:47.716Z,18.52
2022-08-26T06:37:18.478Z,23.48
2022-08-26T06:39:51.175Z,28.42
2022-08-26T06:42:22.481Z,24.38
2022-08-26T06:44:56.151Z,18.00
2022-08-26T06:47:27.135Z,14.02
2022-08-26T06:49:59.375Z,21.73
2022-08-26T06:52:29.434Z,22.10
2022-08-26T06:54:59.420Z,14.77
2022-08-26T06:57:32.402Z,20.13
2022-08-26T07:00:05.843Z,17.25
2022-08-26T07:02:37.288Z,21.27
2022-08-26T07:05:08.382Z,23.55
2022-08-26T07:07:39.168Z,20.98
2022-08-26T07:10:11.291Z,20.02
2022-08-26T07:12:41.316Z,14.68
2022-08-26T07:15:14.432Z,15.75
2022-08-26T07:17:45.293Z,20.85
2022-08-26T07:20:15.559Z,20.98
2022-08-26T07:22:45.502Z,19.95
2022-08-26T07:25:15.524Z,17.88
2022-08-26T07:27:45.919Z,22.02
2022-08-26T07:30:26.454Z,19.88
2022-08-26T07:32:59.252Z,17.83
2022-08-26T07:35:29.581Z,14.73
2022-08-26T07:38:00.295Z,23.27
2022-08-26T07:40:30.545Z,18.35
2022-08-26T07:43:00.692Z,15.65
2022-08-26T07:45:33.882Z,20.10
2022-08-26T07:48:04.170Z,16.13
2022-08-26T07:50:49.564Z,18.38
2022-08-26T07:53:21.382Z,19.05
2022-08-26T07:55:52.147Z,21.33
2022-08-26T07:58:22.848Z,20.73
2022-08-26T08:00:55.717Z,15.88
2022-08-26T08:03:26.158Z,27.73
2022-08-26T08:05:56.397Z,19.73
2022-08-26T08:08:29.239Z,19.42
2022-08-26T08:11:00.032Z,16.52
2022-08-26T08:13:30.395Z,15.60
2022-08-26T08:16:05.106Z,12.88
2022-08-26T08:18:35.102Z,18.45
2022-08-26T08:21:21.208Z,22.52
2022-08-26T08:23:52.482Z,17.02
2022-08-26T08:26:23.119Z,28.27
2022-08-26T08:28:53.604Z,19.80
2022-08-26T08:31:55.905Z,16.80
2022-08-26T08:34:21.556Z,19.13
2022-08-26T08:36:53.303Z,16.95
2022-08-26T08:39:23.814Z,18.27
2022-08-26T08:42:08.975Z,20.75
2022-08-26T08:44:41.430Z,15.05
2022-08-26T08:47:22.327Z,17.38
2022-08-26T08:49:52.815Z,21.05
2022-08-26T08:52:30.700Z,15.52
2022-08-26T08:55:01.030Z,16.58
2022-08-26T08:57:40.474Z,13.23
2022-08-26T09:00:14.347Z,14.82
2022-08-26T09:02:55.137Z,13.38
2022-08-26T09:05:26.636Z,11.93
2022-08-26T09:08:01.469Z,15.48
2022-08-26T09:10:37.506Z,14.65
2022-08-26T09:13:13.634Z,18.52
2022-08-26T09:15:54.816Z,15.48
2022-08-26T09:18:42.463Z,13.55
2022-08-26T09:21:18.261Z,13.60
2022-08-26T09:23:50.958Z,17.95
2022-08-26T09:26:29.100Z,14.32
2022-08-26T09:29:01.205Z,14.50
2022-08-26T09:31:32.488Z,17.52
2022-08-26T09:34:17.995Z,11.10
2022-08-26T09:36:51.427Z,14.10
2022-08-26T09:39:29.675Z,13.52
2022-08-26T09:42:12.878Z,13.20
2022-08-26T09:44:55.943Z,13.95
2022-08-26T09:47:30.287Z,12.27
2022-08-26T09:50:14.458Z,12.60
2022-08-26T09:52:44.693Z,18.50
2022-08-26T09:55:19.133Z,10.05
2022-08-26T09:57:51.338Z,9.85
2022-08-26T10:00:30.148Z,10.82
2022-08-26T10:03:01.622Z,11.27
2022-08-26T10:05:44.209Z,11.77
2022-08-26T10:08:26.044Z,19.63
2022-08-26T10:10:57.662Z,11.63
2022-08-26T10:13:31.328Z,10.50
2022-08-26T10:16:12.313Z,13.63
2022-08-26T10:18:45.789Z,11.68
2022-08-26T10:21:20.366Z,13.63
2022-08-26T10:23:54.175Z,11.90
2022-08-26T10:26:27.193Z,10.82
2022-08-26T10:29:01.519Z,12.07
2022-08-26T10:31:38.141Z,11.07
2022-08-26T10:34:12.308Z,10.65
2022-08-26T10:37:15.636Z,9.00
2022-08-26T10:39:47.091Z,16.23
2022-08-26T10:42:25.193Z,12.65
2022-08-26T10:44:58.816Z,14.20
2022-08-26T10:47:34.218Z,11.18
2022-08-26T10:50:05.978Z,9.52
2022-08-26T10:52:44.823Z,8.27
2022-08-26T10:55:18.657Z,8.18
2022-08-26T10:57:53.919Z,8.82
2022-08-26T11:00:38.590Z,10.25
2022-08-26T11:03:22.110Z,8.93
2022-08-26T11:06:07.912Z,9.48
2022-08-26T11:08:48.555Z,12.20
2022-08-26T11:11:48.035Z,8.07
2022-08-26T11:14:45.958Z,10.20
2022-08-26T11:17:48.581Z,11.85
2022-08-26T11:20:34.985Z,7.32
2022-08-26T11:23:20.254Z,10.65
2022-08-26T11:26:37.806Z,5.90
2022-08-26T11:29:13.205Z,8.75
2022-08-26T11:31:58.621Z,10.10
2022-08-26T11:34:54.081Z,7.18
2022-08-26T11:37:25.463Z,9.45
2022-08-26T11:39:57.882Z,10.60
2022-08-26T11:42:37.905Z,7.00
2022-08-26T11:45:18.084Z,9.93
2022-08-26T11:47:49.618Z,8.82
2022-08-26T11:50:23.473Z,11.55
2022-08-26T11:52:54.930Z,8.10
2022-08-26T11:55:26.555Z,8.60
2022-08-26T11:58:00.983Z,8.70
2022-08-26T12:00:34.561Z,8.07
2022-08-26T12:03:05.976Z,9.70
2022-08-26T12:05:39.598Z,11.60
2022-08-26T12:08:12.375Z,12.52
2022-08-26T12:10:42.669Z,7.22
2022-08-26T12:13:22.982Z,8.38
2022-08-26T12:15:57.112Z,5.47
2022-08-26T12:18:29.271Z,10.75
2022-08-26T12:21:01.810Z,6.32
2022-08-26T12:23:43.928Z,10.80
2022-08-26T12:26:23.733Z,11.00
2022-08-26T12:29:00.220Z,9.18
2022-08-26T12:31:34.656Z,7.90
2022-08-26T12:34:07.183Z,6.95
2022-08-26T12:36:49.549Z,8.32
2022-08-26T12:39:28.838Z,6.40
2022-08-26T12:42:00.254Z,8.25
2022-08-26T12:44:53.666Z,7.93
2022-08-26T12:47:32.710Z,7.22
2022-08-26T12:50:20.926Z,11.30
2022-08-26T12:52:59.825Z,8.95
2022-08-26T12:55:39.097Z,11.20
2022-08-26T12:58:24.666Z,10.27
2022-08-26T13:00:58.349Z,12.13
2022-08-26T13:03:34.250Z,10.40
2022-08-26T13:06:18.642Z,15.10
2022-08-26T13:08:49.737Z,14.60
2022-08-26T13:11:22.393Z,17.33
2022-08-26T13:13:54.275Z,10.55
2022-08-26T13:16:28.015Z,10.80
2022-08-26T13:19:00.205Z,9.27
2022-08-26T13:21:37.694Z,11.55
2022-08-26T13:24:11.829Z,10.23
2022-08-26T13:26:42.853Z,10.68
2022-08-26T13:29:13.202Z,9.73
2022-08-26T13:31:46.914Z,6.97
2022-08-26T13:34:19.015Z,10.93
2022-08-26T13:36:49.745Z,12.18
2022-08-26T13:39:20.563Z,8.00
2022-08-26T13:41:51.571Z,10.50
2022-08-26T13:44:22.079Z,8.55
2022-08-26T13:46:55.184Z,8.73
2022-08-26T13:49:25.521Z,9.13
2022-08-26T13:51:55.828Z,7.72
2022-08-26T13:54:26.161Z,8.05
2022-08-26T13:56:56.476Z,8.93
2022-08-26T13:59:26.901Z,9.45
2022-08-26T14:02:00.788Z,10.27
2022-08-26T14:04:31.183Z,5.80
2022-08-26T14:07:01.586Z,7.63
2022-08-26T14:09:34.398Z,13.35
2022-08-26T14:12:08.488Z,10.70
2022-08-26T14:14:38.836Z,9.18
2022-08-26T14:17:12.827Z,5.88
2022-08-26T14:19:47.940Z,8.43
2022-08-26T14:22:20.160Z,13.07
2022-08-26T14:24:51.785Z,6.40
2022-08-26T14:27:22.123Z,8.80
2022-08-26T14:29:52.414Z,10.32
2022-08-26T14:32:28.775Z,10.05
2022-08-26T14:34:59.538Z,7.78
2022-08-26T14:37:29.833Z,7.57
2022-08-26T14:40:00.154Z,8.48
2022-08-26T14:42:32.524Z,10.63
2022-08-26T14:45:04.772Z,5.72
2022-08-26T14:47:37.389Z,9.68
2022-08-26T14:50:08.415Z,8.35
2022-08-26T14:52:58.802Z,9.88
2022-08-26T14:55:26.528Z,5.95
2022-08-26T14:57:57.021Z,9.85
2022-08-26T15:00:27.690Z,6.43
2022-08-26T15:03:01.177Z,8.18
2022-08-26T15:05:31.689Z,6.15
2022-08-26T15:08:02.721Z,7.03
2022-08-26T15:10:33.039Z,8.32
2022-08-26T15:13:03.332Z,5.28
2022-08-26T15:15:34.256Z,5.30
2022-08-26T15:18:07.343Z,14.65
2022-08-26T15:20:38.306Z,16.42
2022-08-26T15:23:08.836Z,7.47
2022-08-26T15:25:39.818Z,10.05
2022-08-26T15:28:10.115Z,7.88
2022-08-26T15:30:40.370Z,9.05
2022-08-26T15:33:15.304Z,7.78
2022-08-26T15:35:46.092Z,13.00
2022-08-26T15:38:16.384Z,8.50
2022-08-26T15:40:46.928Z,14.60
2022-08-26T15:43:28.153Z,7.00
2022-08-26T15:45:59.315Z,7.00
2022-08-26T15:48:32.229Z,10.13
2022-08-26T15:51:03.641Z,14.80
2022-08-26T15:53:35.041Z,9.98
2022-08-26T15:56:05.396Z,10.10
2022-08-26T15:58:36.307Z,11.30
2022-08-26T16:01:07.000Z,15.63
2022-08-26T16:03:40.128Z,13.45
2022-08-26T16:06:11.166Z,9.55
2022-08-26T16:08:41.631Z,7.85
2022-08-26T16:11:12.014Z,11.30
2022-08-26T16:13:42.453Z,9.20
2022-08-26T16:16:12.904Z,7.18
2022-08-26T16:18:46.592Z,10.05
2022-08-26T16:21:18.594Z,10.95
2022-08-26T16:23:49.145Z,9.35
2022-08-26T16:26:21.899Z,8.25
2022-08-26T16:28:52.401Z,13.07
2022-08-26T16:31:23.097Z,11.05
2022-08-26T16:33:55.956Z,10.75
2022-08-26T16:36:26.216Z,12.50
2022-08-26T16:38:57.139Z,12.05
2022-08-26T16:41:30.274Z,9.82
2022-08-26T16:44:00.857Z,10.75
2022-08-26T16:46:31.536Z,12.65
2022-08-26T16:49:05.037Z,9.18
2022-08-26T16:51:37.911Z,14.20
2022-08-26T16:54:09.931Z,10.68
2022-08-26T16:56:41.138Z,10.18
2022-08-26T16:59:13.597Z,11.73
2022-08-26T17:01:43.944Z,13.05
2022-08-26T17:04:19.066Z,12.18
2022-08-26T17:06:49.368Z,14.05
2022-08-26T17:09:19.805Z,11.82
2022-08-26T17:11:50.388Z,14.88
2022-08-26T17:14:21.159Z,12.38
2022-08-26T17:16:53.580Z,15.70
2022-08-26T17:19:27.292Z,10.27
2022-08-26T17:21:57.642Z,12.15
2022-08-26T17:24:27.959Z,10.60
2022-08-26T17:26:58.242Z,12.20
2022-08-26T17:29:28.507Z,12.23
2022-08-26T17:31:58.840Z,13.40
2022-08-26T17:34:32.127Z,10.88
2022-08-26T17:37:02.400Z,11.73
2022-08-26T17:39:32.719Z,12.00
2022-08-26T17:42:02.968Z,11.48
2022-08-26T17:44:33.250Z,11.48
2022-08-26T17:47:03.547Z,13.00
2022-08-26T17:49:36.523Z,11.13
2022-08-26T17:52:11.361Z,13.77
2022-08-26T17:54:43.334Z,12.55
2022-08-26T17:57:13.821Z,13.35
2022-08-26T17:59:44.199Z,17.08
2022-08-26T18:02:16.441Z,12.85
2022-08-26T18:04:49.351Z,14.30
2022-08-26T18:07:19.864Z,14.73
2022-08-26T18:09:50.103Z,11.57
2022-08-26T18:12:21.440Z,18.58
2022-08-26T18:14:55.795Z,16.02
2022-08-26T18:17:27.292Z,15.73
2022-08-26T18:20:00.231Z,13.25
2022-08-26T18:22:30.535Z,12.10
2022-08-26T18:25:00.772Z,14.82
2022-08-26T18:27:31.137Z,11.30
2022-08-26T18:30:01.605Z,12.88
2022-08-26T18:32:31.914Z,11.90
2022-08-26T18:35:04.860Z,14.05
2022-08-26T18:37:35.172Z,10.67
2022-08-26T18:40:05.665Z,10.93
2022-08-26T18:42:36.096Z,12.95
2022-08-26T18:45:06.571Z,10.75
2022-08-26T18:47:36.863Z,12.98
2022-08-26T18:50:10.970Z,10.70
2022-08-26T18:52:41.366Z,14.43
2022-08-26T18:55:11.766Z,15.57
2022-08-26T18:57:42.147Z,13.00
2022-08-26T19:00:13.171Z,16.02
2022-08-26T19:02:43.692Z,12.65
2022-08-26T19:05:25.579Z,15.88
2022-08-26T19:07:56.607Z,14.07
2022-08-26T19:10:27.625Z,15.95
2022-08-26T19:13:06.097Z,16.27
2022-08-26T19:15:40.618Z,10.25
2022-08-26T19:18:11.288Z,12.65
2022-08-26T19:20:46.748Z,15.75
2022-08-26T19:23:31.413Z,11.68
2022-08-26T19:26:03.090Z,11.48
2022-08-26T19:28:33.453Z,12.40
2022-08-26T19:31:04.196Z,10.45
2022-08-26T19:33:34.443Z,12.20
2022-08-26T19:36:10.440Z,13.57
2022-08-26T19:38:44.467Z,9.52
2022-08-26T19:41:15.866Z,13.13
2022-08-26T19:43:46.429Z,11.20
2022-08-26T19:46:17.862Z,9.90
2022-08-26T19:48:49.947Z,12.27
2022-08-26T19:51:26.998Z,10.93
2022-08-26T19:53:58.335Z,11.77
2022-08-26T19:56:29.353Z,17.23
2022-08-26T19:59:00.033Z,10.65
2022-08-26T20:01:30.854Z,12.55
2022-08-26T20:04:01.203Z,11.75
2022-08-26T20:06:34.209Z,14.07
2022-08-26T20:09:04.491Z,9.52
2022-08-26T20:11:34.765Z,14.32
2022-08-26T20:14:05.076Z,11.38
2022-08-26T20:16:35.561Z,11.63
2022-08-26T20:19:18.352Z,11.45
2022-08-26T20:21:51.304Z,9.95
2022-08-26T20:24:26.416Z,13.03
2022-08-26T20:26:56.942Z,10.85
2022-08-26T20:29:27.760Z,12.50
2022-08-26T20:31:58.890Z,12.35
2022-08-26T20:34:29.529Z,13.35
2022-08-26T20:37:02.741Z,10.43
2022-08-26T20:39:33.051Z,9.57
2022-08-26T20:42:03.384Z,11.05
2022-08-26T20:44:33.500Z,13.23
2022-08-26T20:47:03.842Z,13.20
2022-08-26T20:49:34.183Z,18.83
2022-08-26T20:52:08.025Z,19.15
2022-08-26T20:54:38.357Z,22.13
2022-08-26T20:57:08.796Z,24.67
2022-08-26T20:59:39.121Z,24.75
2022-08-26T21:02:10.139Z,23.05
2022-08-26T21:04:40.590Z,19.77
2022-08-26T21:07:13.619Z,17.60
2022-08-26T21:09:44.146Z,20.50
2022-08-26T21:12:14.480Z,22.77
2022-08-26T21:14:47.788Z,17.58
2022-08-26T21:17:20.254Z,16.92
2022-08-26T21:19:50.597Z,18.13
2022-08-26T21:22:25.162Z,15.73
2022-08-26T21:24:55.561Z,17.95
2022-08-26T21:27:26.566Z,15.48
2022-08-26T21:29:58.234Z,20.00
2022-08-26T21:32:28.563Z,18.67
2022-08-26T21:34:59.270Z,16.52
2022-08-26T21:37:32.323Z,13.88
2022-08-26T21:40:04.202Z,18.63
2022-08-26T21:42:35.475Z,11.10
2022-08-26T21:45:10.064Z,14.63
2022-08-26T21:47:40.701Z,18.13
2022-08-26T21:50:11.795Z,11.13
2022-08-26T21:52:44.711Z,15.88
2022-08-26T21:55:15.220Z,10.65
2022-08-26T21:57:45.638Z,13.48
2022-08-26T22:00:17.081Z,12.30
2022-08-26T22:02:48.069Z,12.25
2022-08-26T22:05:18.856Z,12.90
2022-08-26T22:07:52.742Z,10.18
2022-08-26T22:12:53.033Z,11.50
2022-08-26T22:15:27.423Z,9.95
2022-08-26T22:17:57.737Z,8.48
2022-08-26T22:20:28.065Z,9.75
2022-08-26T22:23:01.548Z,12.23
2022-08-26T22:25:31.863Z,11.98
2022-08-26T22:28:02.469Z,10.75
2022-08-26T22:30:32.876Z,10.07
2022-08-26T22:33:03.182Z,12.90
2022-08-26T22:35:33.653Z,11.10
2022-08-26T22:38:06.632Z,10.25
2022-08-26T22:40:37.209Z,11.77
2022-08-26T22:43:08.166Z,10.23
2022-08-26T22:45:43.457Z,12.35
2022-08-26T22:48:15.572Z,14.77
2022-08-26T22:50:45.894Z,12.95
2022-08-26T22:53:19.709Z,13.00
2022-08-26T22:55:50.264Z,16.70
2022-08-26T22:58:21.273Z,12.52
2022-08-26T23:01:01.477Z,7.63
2022-08-26T23:03:33.303Z,10.45
2022-08-26T23:06:03.724Z,7.68
2022-08-26T23:08:36.622Z,11.38
2022-08-26T23:11:10.400Z,11.32
2022-08-26T23:13:41.070Z,6.95
2022-08-26T23:16:12.300Z,8.48
2022-08-26T23:18:43.380Z,10.13
2022-08-26T23:21:14.020Z,11.32
2022-08-26T23:23:47.143Z,7.53
2022-08-26T23:26:17.887Z,9.95
2022-08-26T23:28:48.257Z,12.40
2022-08-26T23:31:18.732Z,8.63
2022-08-26T23:34:01.610Z,11.05
2022-08-26T23:36:35.095Z,9.82
2022-08-26T23:39:08.653Z,8.48
2022-08-26T23:41:39.046Z,10.77
2022-08-26T23:44:09.540Z,12.55
2022-08-26T23:46:40.099Z,11.25
2022-08-26T23:49:10.409Z,9.48
2022-08-26T23:51:53.565Z,11.90
2022-08-26T23:54:26.509Z,11.45
2022-08-26T23:56:57.034Z,11.13
2022-08-26T23:59:27.368Z,11.32
